Time;durP1;ratioP1;P1;durP2;ratioP2;P2;SDS_P1;SDS_P2;PMS_P1;PMS_P2;Temp;Humidity;BMP_temperature;BMP_pressure;BME280_temperature;BME280_humidity;BME280_pressure;Samples;Min_cycle;Max_cycle;Signal;HPM_P1;HPM_P2
2022/12/07 00:01:18;;;;;;;4.25;1.67;;;;;;;;;;5077365;28;20055;-63
2022/12/07 00:03:47;;;;;;;1.58;1.08;;;;;;;;;;5073251;28;20041;-70
2022/12/07 00:06:17;;;;;;;4.88;2.25;;;;;;;;;;5065018;28;20055;-66
2022/12/07 00:08:46;;;;;;;3.22;1.23;;;;;;;;;;5062751;28;20041;-63
2022/12/07 00:11:15;;;;;;;2.08;1.20;;;;;;;;;;5074644;28;20060;-63
2022/12/07 00:13:44;;;;;;;0.68;0.68;;;;;;;;;;5075726;28;20041;-62
2022/12/07 00:16:13;;;;;;;2.33;1.80;;;;;;;;;;5074908;28;20040;-63
2022/12/07 00:18:42;;;;;;;2.08;1.17;;;;;;;;;;5066056;28;20045;-63
2022/12/07 00:21:12;;;;;;;2.25;1.65;;;;;;;;;;5079260;28;20097;-63
2022/12/07 00:23:42;;;;;;;1.20;0.95;;;;;;;;;;5073185;28;20054;-62
2022/12/07 00:26:11;;;;;;;1.27;1.10;;;;;;;;;;5075980;28;20056;-66
2022/12/07 00:28:39;;;;;;;1.75;0.88;;;;;;;;;;5070069;28;20056;-62
2022/12/07 00:31:09;;;;;;;1.02;0.93;;;;;;;;;;5074851;28;20064;-66
2022/12/07 00:33:38;;;;;;;1.80;1.42;;;;;;;;;;5078693;28;20040;-62
2022/12/07 00:36:07;;;;;;;1.40;1.15;;;;;;;;;;5077913;28;20057;-63
2022/12/07 00:38:37;;;;;;;1.00;0.63;;;;;;;;;;5073957;28;20040;-63
2022/12/07 00:41:07;;;;;;;2.53;1.05;;;;;;;;;;5076449;28;20048;-63
2022/12/07 00:43:36;;;;;;;4.32;1.33;;;;;;;;;;5066653;28;20067;-65
2022/12/07 00:46:04;;;;;;;3.00;1.35;;;;;;;;;;5069109;28;20052;-64
2022/12/07 00:48:33;;;;;;;4.88;1.48;;;;;;;;;;5074369;28;20094;-62
2022/12/07 00:51:01;;;;;;;4.20;1.05;;;;;;;;;;5072204;28;20041;-62
2022/12/07 00:53:29;;;;;;;3.90;1.65;;;;;;;;;;5066706;28;20036;-63
2022/12/07 00:55:58;;;;;;;1.25;1.15;;;;;;;;;;5067546;28;20484;-64
2022/12/07 00:58:28;;;;;;;1.38;1.27;;;;;;;;;;5072638;28;20059;-63
2022/12/07 01:01:01;;;;;;;0.50;0.50;;;;;;;;;;5070840;28;20059;-64
2022/12/07 01:03:29;;;;;;;0.82;0.82;;;;;;;;;;5072484;28;20472;-65
2022/12/07 01:05:58;;;;;;;3.10;1.90;;;;;;;;;;5069338;28;20532;-67
2022/12/07 01:08:27;;;;;;;2.38;1.42;;;;;;;;;;5058365;28;20055;-63
2022/12/07 01:10:59;;;;;;;2.35;1.30;;;;;;;;;;5072828;28;20047;-63
2022/12/07 01:13:29;;;;;;;6.38;1.08;;;;;;;;;;5064391;28;20468;-66
2022/12/07 01:15:59;;;;;;;1.23;1.13;;;;;;;;;;5072335;28;20057;-66
2022/12/07 01:18:28;;;;;;;4.32;1.77;;;;;;;;;;5070891;28;20549;-62
2022/12/07 01:21:00;;;;;;;1.02;0.90;;;;;;;;;;5067509;28;20052;-68
2022/12/07 01:23:28;;;;;;;1.95;1.20;;;;;;;;;;5060736;28;20158;-64
2022/12/07 01:25:57;;;;;;;2.90;2.28;;;;;;;;;;5069756;28;20061;-64
2022/12/07 01:28:25;;;;;;;2.88;1.35;;;;;;;;;;5069584;28;20044;-62
2022/12/07 01:30:59;;;;;;;2.13;1.58;;;;;;;;;;5071575;28;20049;-62
2022/12/07 01:33:29;;;;;;;0.77;0.77;;;;;;;;;;5061702;28;20048;-66
2022/12/07 01:36:02;;;;;;;2.47;1.23;;;;;;;;;;5073934;28;20053;-62
2022/12/07 01:38:31;;;;;;;1.63;1.35;;;;;;;;;;5069113;28;20428;-62
2022/12/07 01:40:59;;;;;;;3.67;1.83;;;;;;;;;;5075217;28;20048;-63
2022/12/07 01:43:29;;;;;;;1.98;1.45;;;;;;;;;;5073968;28;20048;-64
2022/12/07 01:45:58;;;;;;;2.83;0.98;;;;;;;;;;5058292;28;20053;-62
2022/12/07 01:48:29;;;;;;;2.42;1.63;;;;;;;;;;5066623;28;20570;-62
2022/12/07 01:50:58;;;;;;;3.83;1.60;;;;;;;;;;5069163;28;20044;-63
2022/12/07 01:53:27;;;;;;;2.75;1.13;;;;;;;;;;5064911;28;20041;-66
2022/12/07 01:55:56;;;;;;;3.20;0.88;;;;;;;;;;5061872;28;20048;-62
2022/12/07 01:58:25;;;;;;;0.95;0.82;;;;;;;;;;5070425;28;20059;-64
2022/12/07 02:00:53;;;;;;;3.70;1.40;;;;;;;;;;5063329;28;20056;-63
2022/12/07 02:03:25;;;;;;;1.15;1.08;;;;;;;;;;5069913;28;20489;-63
2022/12/07 02:05:54;;;;;;;1.58;1.05;;;;;;;;;;5070906;28;20048;-62
2022/12/07 02:08:23;;;;;;;2.40;1.70;;;;;;;;;;5063410;28;20062;-62
2022/12/07 02:10:51;;;;;;;1.95;1.40;;;;;;;;;;5063389;28;20070;-70
2022/12/07 02:13:21;;;;;;;0.80;0.80;;;;;;;;;;5069248;28;20127;-63
2022/12/07 02:16:01;;;;;;;3.42;1.80;;;;;;;;;;5070262;28;20037;-64
2022/12/07 02:18:34;;;;;;;2.58;1.13;;;;;;;;;;5071311;28;20052;-62
2022/12/07 02:21:07;;;;;;;1.08;0.55;;;;;;;;;;5071094;28;20052;-62
2022/12/07 02:23:43;;;;;;;2.00;0.75;;;;;;;;;;5068877;28;20512;-65
2022/12/07 02:26:25;;;;;;;1.92;1.58;;;;;;;;;;5066531;28;20079;-62
2022/12/07 02:29:11;;;;;;;2.67;1.77;;;;;;;;;;5071369;28;20051;-62
2022/12/07 02:31:42;;;;;;;4.30;2.47;;;;;;;;;;5066087;28;20047;-66
2022/12/07 02:34:13;;;;;;;0.55;0.55;;;;;;;;;;5073557;28;20048;-66
2022/12/07 02:36:45;;;;;;;1.65;1.15;;;;;;;;;;5062306;28;20527;-63
2022/12/07 02:39:18;;;;;;;0.85;0.85;;;;;;;;;;5071533;28;20052;-62
2022/12/07 02:41:48;;;;;;;1.85;1.70;;;;;;;;;;5068144;28;20402;-64
2022/12/07 02:44:20;;;;;;;2.15;1.67;;;;;;;;;;5065560;28;20044;-63
2022/12/07 02:46:51;;;;;;;2.20;0.77;;;;;;;;;;5064567;28;20494;-68
2022/12/07 02:49:20;;;;;;;3.15;0.85;;;;;;;;;;5062199;28;20126;-63
2022/12/07 02:51:48;;;;;;;1.58;0.90;;;;;;;;;;5071898;28;20131;-63
2022/12/07 02:54:17;;;;;;;4.00;1.38;;;;;;;;;;5065091;28;20410;-62
2022/12/07 02:56:49;;;;;;;3.15;1.67;;;;;;;;;;5076674;28;20049;-63
2022/12/07 02:59:25;;;;;;;3.00;0.90;;;;;;;;;;5062266;28;20392;-64
2022/12/07 03:01:58;;;;;;;0.75;0.75;;;;;;;;;;5069850;28;20052;-63
2022/12/07 03:04:33;;;;;;;2.13;0.98;;;;;;;;;;5061305;28;20408;-64
2022/12/07 03:07:06;;;;;;;0.95;0.73;;;;;;;;;;5070646;28;20386;-63
2022/12/07 03:09:37;;;;;;;1.10;0.98;;;;;;;;;;5066789;28;20062;-63
2022/12/07 03:12:12;;;;;;;2.45;1.85;;;;;;;;;;5071242;28;20406;-64
2022/12/07 03:14:43;;;;;;;2.30;1.02;;;;;;;;;;5069218;28;20056;-62
2022/12/07 03:17:14;;;;;;;2.75;1.20;;;;;;;;;;5058904;28;20099;-62
2022/12/07 03:19:44;;;;;;;0.70;0.70;;;;;;;;;;5067355;28;20086;-64
2022/12/07 03:22:13;;;;;;;1.30;1.20;;;;;;;;;;5068454;28;20068;-62
2022/12/07 03:24:43;;;;;;;2.63;1.08;;;;;;;;;;5067380;28;20305;-64
2022/12/07 03:27:14;;;;;;;2.85;1.73;;;;;;;;;;5068690;28;20060;-62
2022/12/07 03:29:45;;;;;;;1.60;1.50;;;;;;;;;;5067166;28;20072;-68
2022/12/07 03:32:16;;;;;;;2.33;1.25;;;;;;;;;;5065043;28;20105;-64
2022/12/07 03:34:47;;;;;;;4.68;2.42;;;;;;;;;;5067696;28;20501;-74
2022/12/07 03:37:17;;;;;;;2.88;1.70;;;;;;;;;;5067979;28;20049;-62
2022/12/07 03:39:48;;;;;;;1.35;1.25;;;;;;;;;;5067116;28;20044;-63
2022/12/07 03:42:16;;;;;;;0.80;0.77;;;;;;;;;;5063796;28;20041;-62
2022/12/07 03:44:46;;;;;;;3.53;1.23;;;;;;;;;;5068916;28;20059;-62
2022/12/07 03:47:17;;;;;;;1.90;1.30;;;;;;;;;;5068036;28;20056;-64
2022/12/07 03:49:47;;;;;;;1.88;1.33;;;;;;;;;;5074598;28;20051;-63
2022/12/07 03:52:20;;;;;;;3.80;1.85;;;;;;;;;;5061083;28;20052;-62
2022/12/07 03:54:51;;;;;;;1.02;0.88;;;;;;;;;;5066688;28;20056;-63
2022/12/07 03:57:19;;;;;;;2.08;1.63;;;;;;;;;;5063411;28;20052;-62
2022/12/07 03:59:49;;;;;;;1.17;0.77;;;;;;;;;;5065283;28;20063;-69
2022/12/07 04:02:18;;;;;;;5.00;2.05;;;;;;;;;;5069480;28;20063;-62
2022/12/07 04:04:46;;;;;;;1.67;1.25;;;;;;;;;;5071868;28;20071;-62
2022/12/07 04:07:14;;;;;;;0.47;0.47;;;;;;;;;;5064288;28;20049;-62
2022/12/07 04:09:42;;;;;;;1.42;0.90;;;;;;;;;;5070772;28;20048;-62
2022/12/07 04:12:11;;;;;;;3.22;1.55;;;;;;;;;;5059218;28;20044;-62
2022/12/07 04:14:39;;;;;;;2.65;1.45;;;;;;;;;;5071652;28;20048;-63
2022/12/07 04:17:08;;;;;;;1.73;1.23;;;;;;;;;;5056721;28;20501;-64
2022/12/07 04:19:37;;;;;;;1.42;1.08;;;;;;;;;;5068225;28;20501;-65
2022/12/07 04:22:05;;;;;;;0.85;0.85;;;;;;;;;;5060803;28;20051;-61
2022/12/07 04:24:34;;;;;;;1.35;1.33;;;;;;;;;;5079192;28;20052;-68
2022/12/07 04:27:02;;;;;;;1.60;1.25;;;;;;;;;;5068544;28;20049;-63
2022/12/07 04:29:30;;;;;;;2.75;1.95;;;;;;;;;;5063343;28;20053;-62
2022/12/07 04:31:59;;;;;;;3.92;2.38;;;;;;;;;;5055550;28;20051;-63
2022/12/07 04:34:29;;;;;;;1.23;1.13;;;;;;;;;;5075233;28;20109;-63
2022/12/07 04:36:57;;;;;;;2.10;1.55;;;;;;;;;;5068485;28;20063;-62
2022/12/07 04:39:26;;;;;;;3.30;1.67;;;;;;;;;;5055936;28;20049;-62
2022/12/07 04:41:55;;;;;;;4.05;2.13;;;;;;;;;;5069953;28;20067;-62
2022/12/07 04:44:23;;;;;;;3.13;1.55;;;;;;;;;;5076959;28;20396;-62
2022/12/07 04:46:51;;;;;;;0.98;0.85;;;;;;;;;;5054829;28;20045;-62
2022/12/07 04:49:20;;;;;;;3.58;1.77;;;;;;;;;;5073608;28;20133;-62
2022/12/07 04:51:50;;;;;;;0.77;0.77;;;;;;;;;;5075484;28;20040;-66
2022/12/07 04:54:18;;;;;;;2.65;1.73;;;;;;;;;;5077691;28;20059;-66
2022/12/07 04:56:47;;;;;;;5.05;1.35;;;;;;;;;;5063890;28;20044;-63
2022/12/07 04:59:16;;;;;;;1.10;0.90;;;;;;;;;;5065306;28;20052;-63
2022/12/07 05:01:44;;;;;;;3.75;1.30;;;;;;;;;;5064697;28;20092;-62
2022/12/07 05:04:13;;;;;;;1.35;1.00;;;;;;;;;;5067393;28;20131;-71
2022/12/07 05:06:41;;;;;;;4.63;1.45;;;;;;;;;;5073333;28;20116;-63
2022/12/07 05:09:10;;;;;;;1.17;1.02;;;;;;;;;;5067230;28;20063;-63
2022/12/07 05:11:39;;;;;;;3.25;1.17;;;;;;;;;;5065000;28;20045;-64
2022/12/07 05:14:09;;;;;;;4.70;2.00;;;;;;;;;;5071999;28;20431;-66
2022/12/07 05:16:37;;;;;;;2.97;0.95;;;;;;;;;;5067556;28;20055;-67
2022/12/07 05:19:05;;;;;;;5.20;1.45;;;;;;;;;;5067138;28;20053;-63
2022/12/07 05:21:33;;;;;;;1.17;1.00;;;;;;;;;;5069948;28;20047;-65
2022/12/07 05:24:02;;;;;;;2.80;1.75;;;;;;;;;;5061346;28;20053;-62
2022/12/07 05:26:32;;;;;;;1.05;0.93;;;;;;;;;;5065167;28;20770;-64
2022/12/07 05:29:00;;;;;;;1.25;1.20;;;;;;;;;;5070897;28;20111;-62
2022/12/07 05:31:30;;;;;;;5.20;2.40;;;;;;;;;;5061663;28;20072;-62
2022/12/07 05:33:58;;;;;;;1.95;1.20;;;;;;;;;;5069951;28;20052;-69
2022/12/07 05:36:28;;;;;;;1.00;0.82;;;;;;;;;;5059006;28;20041;-62
2022/12/07 05:38:56;;;;;;;0.95;0.93;;;;;;;;;;5059040;28;20049;-66
2022/12/07 05:44:12;;;;;;;1.70;1.25;;;;;;;;;;5063338;28;20040;-63
2022/12/07 05:46:40;;;;;;;1.60;0.93;;;;;;;;;;5066770;28;20050;-63
2022/12/07 05:49:08;;;;;;;0.60;0.60;;;;;;;;;;5071136;28;20048;-63
2022/12/07 05:51:37;;;;;;;2.13;1.08;;;;;;;;;;5065889;28;20127;-62
2022/12/07 05:54:05;;;;;;;2.60;1.10;;;;;;;;;;5061327;28;20047;-63
2022/12/07 05:56:34;;;;;;;4.65;3.05;;;;;;;;;;5063569;28;20053;-68
2022/12/07 06:01:49;;;;;;;1.38;0.82;;;;;;;;;;5055480;28;20041;-66
2022/12/07 06:04:18;;;;;;;0.60;0.60;;;;;;;;;;5069814;28;20404;-63
2022/12/07 06:06:46;;;;;;;1.95;1.85;;;;;;;;;;5065370;28;20047;-65
2022/12/07 06:09:15;;;;;;;4.65;2.70;;;;;;;;;;5057944;28;20044;-72
2022/12/07 06:14:29;;;;;;;1.25;1.15;;;;;;;;;;5069919;28;20049;-73
2022/12/07 06:16:58;;;;;;;1.98;1.65;;;;;;;;;;5066200;28;20059;-64
2022/12/07 06:19:27;;;;;;;1.42;1.02;;;;;;;;;;5062641;28;20045;-66
2022/12/07 06:21:55;;;;;;;1.48;1.00;;;;;;;;;;5055698;28;20055;-70
2022/12/07 06:24:24;;;;;;;1.55;1.45;;;;;;;;;;5055055;28;20268;-65
2022/12/07 06:26:53;;;;;;;1.65;1.55;;;;;;;;;;5063601;28;20468;-66
2022/12/07 06:29:21;;;;;;;1.63;1.15;;;;;;;;;;5054927;28;20134;-63
2022/12/07 06:31:50;;;;;;;1.13;1.02;;;;;;;;;;5055750;28;20052;-65
2022/12/07 06:34:22;;;;;;;1.98;1.73;;;;;;;;;;5053719;28;20049;-64
2022/12/07 06:36:53;;;;;;;3.47;1.48;;;;;;;;;;5060619;28;20540;-63
2022/12/07 06:39:22;;;;;;;1.08;1.02;;;;;;;;;;5058069;28;20053;-64
2022/12/07 06:41:52;;;;;;;2.00;1.33;;;;;;;;;;5059610;28;20567;-63
2022/12/07 06:44:20;;;;;;;1.02;0.90;;;;;;;;;;5062669;28;20497;-63
2022/12/07 06:46:48;;;;;;;6.90;2.30;;;;;;;;;;5058205;28;20056;-65
2022/12/07 06:49:17;;;;;;;1.77;1.60;;;;;;;;;;5057398;28;20497;-62
2022/12/07 06:51:46;;;;;;;3.85;2.08;;;;;;;;;;5065681;28;20052;-66
2022/12/07 06:54:15;;;;;;;2.40;1.77;;;;;;;;;;5065995;28;20044;-63
2022/12/07 06:56:44;;;;;;;1.08;0.95;;;;;;;;;;5066295;28;20049;-62
2022/12/07 06:59:12;;;;;;;1.13;0.98;;;;;;;;;;5070339;28;20443;-62
2022/12/07 07:01:40;;;;;;;3.97;2.80;;;;;;;;;;5069241;28;20037;-62
2022/12/07 07:04:09;;;;;;;4.18;1.52;;;;;;;;;;5070510;28;20048;-63
2022/12/07 07:06:37;;;;;;;1.02;0.95;;;;;;;;;;5068042;28;20094;-65
2022/12/07 07:09:09;;;;;;;1.75;1.25;;;;;;;;;;5070006;28;20493;-63
2022/12/07 07:11:37;;;;;;;1.38;1.02;;;;;;;;;;5063115;28;20045;-65
2022/12/07 07:14:06;;;;;;;2.58;1.42;;;;;;;;;;5068706;28;20250;-62
2022/12/07 07:16:34;;;;;;;2.92;2.00;;;;;;;;;;5064480;28;20102;-66
2022/12/07 07:19:03;;;;;;;2.38;1.45;;;;;;;;;;5067488;28;20049;-63
2022/12/07 07:21:31;;;;;;;1.88;1.33;;;;;;;;;;5052300;28;20048;-62
2022/12/07 07:23:59;;;;;;;2.63;1.85;;;;;;;;;;5062344;28;20045;-63
2022/12/07 07:26:30;;;;;;;0.60;0.60;;;;;;;;;;5058672;28;20504;-64
2022/12/07 07:28:58;;;;;;;4.45;1.75;;;;;;;;;;5063332;28;20603;-64
2022/12/07 07:31:26;;;;;;;1.17;0.90;;;;;;;;;;5061690;28;20056;-62
2022/12/07 07:33:55;;;;;;;2.95;1.88;;;;;;;;;;5070815;28;20106;-64
2022/12/07 07:36:24;;;;;;;5.00;2.00;;;;;;;;;;5054735;28;20124;-63
2022/12/07 07:38:53;;;;;;;2.42;1.25;;;;;;;;;;5063488;28;20085;-62
2022/12/07 07:41:21;;;;;;;2.22;1.48;;;;;;;;;;5069595;28;20075;-64
2022/12/07 07:43:51;;;;;;;3.85;1.60;;;;;;;;;;5059933;28;20056;-62
2022/12/07 07:46:20;;;;;;;1.38;1.17;;;;;;;;;;5057310;28;20483;-63
2022/12/07 07:48:48;;;;;;;1.52;1.42;;;;;;;;;;5063719;28;20052;-63
2022/12/07 07:51:17;;;;;;;2.33;1.88;;;;;;;;;;5062554;28;20555;-62
2022/12/07 07:53:46;;;;;;;1.73;0.90;;;;;;;;;;5066988;28;20404;-63
2022/12/07 07:56:14;;;;;;;0.70;0.70;;;;;;;;;;5059788;28;20079;-62
2022/12/07 07:58:43;;;;;;;3.70;2.03;;;;;;;;;;5065571;28;20047;-62
2022/12/07 08:01:13;;;;;;;1.80;1.67;;;;;;;;;;5068623;28;20042;-62
2022/12/07 08:03:41;;;;;;;1.45;1.33;;;;;;;;;;5072257;28;20420;-62
2022/12/07 08:06:10;;;;;;;3.25;1.85;;;;;;;;;;5069732;28;20071;-64
2022/12/07 08:08:38;;;;;;;1.33;0.93;;;;;;;;;;5066146;28;20051;-64
2022/12/07 08:11:07;;;;;;;1.38;1.27;;;;;;;;;;5070266;28;20045;-62
2022/12/07 08:13:35;;;;;;;1.17;1.08;;;;;;;;;;5072850;28;20481;-65
2022/12/07 08:16:05;;;;;;;1.80;1.70;;;;;;;;;;5071952;28;20080;-63
2022/12/07 08:18:37;;;;;;;2.13;1.08;;;;;;;;;;5069398;28;20618;-69
2022/12/07 08:21:06;;;;;;;4.45;2.42;;;;;;;;;;5068608;28;20477;-62
2022/12/07 08:23:35;;;;;;;3.58;2.67;;;;;;;;;;5069514;28;20131;-65
2022/12/07 08:26:08;;;;;;;1.00;0.93;;;;;;;;;;5065049;28;20079;-62
2022/12/07 08:28:36;;;;;;;3.08;1.52;;;;;;;;;;5067983;28;20056;-63
2022/12/07 08:31:06;;;;;;;2.47;1.85;;;;;;;;;;5068847;28;20047;-64
2022/12/07 08:33:35;;;;;;;1.45;1.33;;;;;;;;;;5067629;28;20418;-66
2022/12/07 08:36:06;;;;;;;4.82;2.47;;;;;;;;;;5069073;28;20056;-63
2022/12/07 08:38:35;;;;;;;1.83;1.63;;;;;;;;;;5070100;28;20040;-67
2022/12/07 08:41:04;;;;;;;1.15;1.08;;;;;;;;;;5072820;28;20102;-65
2022/12/07 08:43:33;;;;;;;6.07;1.63;;;;;;;;;;5070724;28;20499;-63
2022/12/07 08:46:05;;;;;;;4.40;2.20;;;;;;;;;;5069246;28;20048;-68
2022/12/07 08:48:34;;;;;;;6.72;2.53;;;;;;;;;;5067976;28;20049;-69
2022/12/07 08:51:04;;;;;;;2.85;1.48;;;;;;;;;;5062383;28;20052;-62
2022/12/07 08:53:34;;;;;;;2.13;1.92;;;;;;;;;;5067888;28;20048;-67
2022/12/07 08:56:03;;;;;;;0.93;0.50;;;;;;;;;;5066514;28;20492;-65
2022/12/07 08:58:32;;;;;;;3.90;2.58;;;;;;;;;;5069977;28;20063;-64
2022/12/07 09:01:00;;;;;;;2.15;1.58;;;;;;;;;;5070668;28;20072;-63
2022/12/07 09:03:29;;;;;;;2.97;1.42;;;;;;;;;;5069279;28;20053;-65
2022/12/07 09:05:58;;;;;;;4.85;1.98;;;;;;;;;;5063425;28;20053;-64
2022/12/07 09:08:30;;;;;;;2.75;1.23;;;;;;;;;;5068275;28;20048;-65
2022/12/07 09:10:59;;;;;;;2.25;1.75;;;;;;;;;;5069043;28;20044;-65
2022/12/07 09:13:27;;;;;;;1.55;1.13;;;;;;;;;;5069453;28;20055;-62
2022/12/07 09:15:56;;;;;;;2.58;1.77;;;;;;;;;;5067978;28;20072;-62
2022/12/07 09:18:25;;;;;;;6.30;2.47;;;;;;;;;;5073340;28;20527;-64
2022/12/07 09:20:53;;;;;;;5.22;1.70;;;;;;;;;;5064237;28;20361;-62
2022/12/07 09:23:22;;;;;;;1.38;1.20;;;;;;;;;;5069551;28;20385;-63
2022/12/07 09:25:51;;;;;;;5.65;1.17;;;;;;;;;;5065642;28;20059;-62
2022/12/07 09:28:20;;;;;;;0.98;0.98;;;;;;;;;;5072762;28;20045;-65
2022/12/07 09:30:48;;;;;;;7.05;2.30;;;;;;;;;;5064281;28;20094;-67
2022/12/07 09:33:37;;;;;;;2.72;1.15;;;;;;;;;;5072375;28;20056;-63
2022/12/07 09:36:06;;;;;;;1.88;0.80;;;;;;;;;;5076121;28;20385;-62
2022/12/07 09:38:35;;;;;;;5.00;1.77;;;;;;;;;;5070399;28;20084;-63
2022/12/07 09:41:07;;;;;;;5.13;1.70;;;;;;;;;;5077256;28;20080;-64
2022/12/07 09:43:36;;;;;;;6.78;2.67;;;;;;;;;;5083828;28;20575;-63
2022/12/07 09:46:05;;;;;;;3.33;1.35;;;;;;;;;;5072501;28;20085;-62
2022/12/07 09:48:36;;;;;;;5.70;1.00;;;;;;;;;;5066013;28;20128;-63
2022/12/07 09:51:11;;;;;;;2.63;0.98;;;;;;;;;;5063820;28;20083;-63
2022/12/07 09:53:39;;;;;;;5.03;2.83;;;;;;;;;;5071172;28;20048;-63
2022/12/07 09:56:10;;;;;;;7.65;2.42;;;;;;;;;;5072456;28;20049;-67
2022/12/07 09:58:39;;;;;;;3.92;2.20;;;;;;;;;;5066526;28;20102;-63
2022/12/07 10:01:12;;;;;;;4.65;2.30;;;;;;;;;;5068567;28;20095;-69
2022/12/07 10:03:42;;;;;;;3.75;1.63;;;;;;;;;;5073772;28;20055;-63
2022/12/07 10:06:13;;;;;;;2.45;1.52;;;;;;;;;;5070473;28;20056;-62
2022/12/07 10:08:43;;;;;;;2.78;1.48;;;;;;;;;;5069522;28;20481;-64
2022/12/07 10:11:14;;;;;;;1.85;1.23;;;;;;;;;;5071137;28;20163;-63
2022/12/07 10:13:45;;;;;;;2.97;1.55;;;;;;;;;;5071479;28;20576;-63
2022/12/07 10:16:30;;;;;;;2.92;0.98;;;;;;;;;;5075300;28;20052;-63
2022/12/07 10:19:13;;;;;;;2.33;1.38;;;;;;;;;;5062803;28;20063;-63
2022/12/07 10:21:41;;;;;;;1.35;1.00;;;;;;;;;;5071941;28;20035;-65
2022/12/07 10:24:16;;;;;;;13.88;1.60;;;;;;;;;;5070545;28;20067;-62
2022/12/07 10:26:50;;;;;;;3.10;1.58;;;;;;;;;;5065861;28;20057;-65
2022/12/07 10:29:21;;;;;;;4.20;1.25;;;;;;;;;;5066655;28;20044;-62
2022/12/07 10:31:53;;;;;;;2.50;1.77;;;;;;;;;;5068133;28;20503;-62
2022/12/07 10:34:24;;;;;;;4.30;1.50;;;;;;;;;;5071624;28;20052;-66
2022/12/07 10:36:52;;;;;;;3.85;1.52;;;;;;;;;;5066945;28;20056;-67
2022/12/07 10:39:21;;;;;;;2.88;1.65;;;;;;;;;;5071673;28;20059;-64
2022/12/07 10:41:58;;;;;;;3.90;1.48;;;;;;;;;;5069563;28;20063;-62
2022/12/07 10:44:28;;;;;;;3.80;1.58;;;;;;;;;;5071725;28;20474;-62
2022/12/07 10:47:08;;;;;;;3.10;1.35;;;;;;;;;;5070853;28;20066;-64
2022/12/07 10:50:09;;;;;;;8.35;2.33;;;;;;;;;;5070893;28;20118;-74
2022/12/07 10:52:45;;;;;;;5.25;2.28;;;;;;;;;;5070627;28;20530;-66
2022/12/07 10:55:18;;;;;;;1.00;0.88;;;;;;;;;;5068136;28;20098;-65
2022/12/07 10:57:55;;;;;;;0.93;0.80;;;;;;;;;;5077097;28;20044;-62
2022/12/07 11:00:24;;;;;;;1.17;1.08;;;;;;;;;;5070852;28;20514;-62
2022/12/07 11:03:11;;;;;;;1.80;0.82;;;;;;;;;;5066575;28;20378;-62
2022/12/07 11:05:44;;;;;;;0.98;0.60;;;;;;;;;;5065843;28;20083;-64
2022/12/07 11:08:18;;;;;;;2.78;1.27;;;;;;;;;;5068228;28;20063;-62
2022/12/07 11:10:49;;;;;;;4.65;1.45;;;;;;;;;;5068677;28;20044;-62
2022/12/07 11:13:24;;;;;;;4.07;1.25;;;;;;;;;;5070845;28;20497;-64
2022/12/07 11:16:03;;;;;;;5.05;1.08;;;;;;;;;;5067615;28;20048;-61
2022/12/07 11:18:35;;;;;;;3.85;1.55;;;;;;;;;;5069627;28;20037;-62
2022/12/07 11:21:08;;;;;;;4.65;1.67;;;;;;;;;;5067898;28;20489;-62
2022/12/07 11:23:43;;;;;;;0.88;0.82;;;;;;;;;;5068318;28;20271;-62
2022/12/07 11:26:13;;;;;;;4.32;1.73;;;;;;;;;;5067798;28;20053;-62
2022/12/07 11:28:51;;;;;;;3.22;1.15;;;;;;;;;;5047858;28;20446;-62
2022/12/07 11:31:22;;;;;;;4.57;1.17;;;;;;;;;;5046146;28;20049;-62
2022/12/07 11:34:01;;;;;;;4.03;1.70;;;;;;;;;;5041758;28;20494;-62
2022/12/07 11:36:38;;;;;;;3.42;1.33;;;;;;;;;;5047137;28;20099;-63
2022/12/07 11:39:11;;;;;;;1.23;1.00;;;;;;;;;;5046484;28;20048;-62
2022/12/07 11:41:42;;;;;;;2.17;1.33;;;;;;;;;;5045282;28;20064;-62
2022/12/07 11:44:19;;;;;;;1.23;0.82;;;;;;;;;;5053985;28;20056;-62
2022/12/07 11:46:57;;;;;;;1.05;0.85;;;;;;;;;;5059776;28;20055;-74
2022/12/07 11:49:29;;;;;;;3.88;1.02;;;;;;;;;;5041268;28;20513;-62
2022/12/07 11:52:00;;;;;;;2.13;1.42;;;;;;;;;;5043412;28;20052;-64
2022/12/07 11:54:30;;;;;;;0.85;0.70;;;;;;;;;;5048203;28;20133;-66
2022/12/07 11:57:01;;;;;;;3.05;0.90;;;;;;;;;;5046559;28;20778;-74
2022/12/07 11:59:33;;;;;;;3.25;1.05;;;;;;;;;;5047237;28;20152;-62
2022/12/07 12:02:04;;;;;;;2.60;1.77;;;;;;;;;;5050430;28;20140;-62
2022/12/07 12:04:37;;;;;;;1.38;1.27;;;;;;;;;;5048696;28;20047;-64
2022/12/07 12:07:07;;;;;;;1.42;1.33;;;;;;;;;;5043808;28;20056;-62
2022/12/07 12:09:57;;;;;;;2.58;0.60;;;;;;;;;;5046998;28;20049;-67
2022/12/07 12:12:41;;;;;;;4.85;1.20;;;;;;;;;;5051847;28;20041;-64
2022/12/07 12:15:42;;;;;;;2.28;0.93;;;;;;;;;;5036082;28;20577;-62
2022/12/07 12:18:21;;;;;;;2.80;1.40;;;;;;;;;;5037796;28;20041;-62
2022/12/07 12:20:51;;;;;;;1.35;0.73;;;;;;;;;;5043041;28;20065;-62
2022/12/07 12:23:20;;;;;;;6.20;1.90;;;;;;;;;;5044095;28;20043;-64
2022/12/07 12:25:50;;;;;;;3.33;1.77;;;;;;;;;;5040385;28;20048;-62
2022/12/07 12:28:28;;;;;;;5.05;1.27;;;;;;;;;;5045137;28;20478;-62
2022/12/07 12:31:09;;;;;;;3.05;1.13;;;;;;;;;;5024726;28;20057;-62
2022/12/07 12:33:39;;;;;;;2.90;1.08;;;;;;;;;;5025595;28;20700;-63
2022/12/07 12:36:18;;;;;;;3.50;1.48;;;;;;;;;;5027449;28;20052;-66
2022/12/07 12:38:50;;;;;;;1.10;0.70;;;;;;;;;;5018084;28;20052;-62
2022/12/07 12:41:33;;;;;;;4.28;1.23;;;;;;;;;;5027576;28;20050;-62
2022/12/07 12:44:01;;;;;;;4.70;2.28;;;;;;;;;;5023930;28;20430;-62
2022/12/07 12:46:51;;;;;;;4.18;1.23;;;;;;;;;;5009083;28;20498;-68
2022/12/07 12:49:44;;;;;;;1.45;0.70;;;;;;;;;;5025623;28;20054;-64
2022/12/07 12:52:30;;;;;;;1.00;0.85;;;;;;;;;;5020981;28;20060;-66
2022/12/07 12:55:02;;;;;;;1.30;1.05;;;;;;;;;;5013481;28;20038;-64
2022/12/07 12:57:32;;;;;;;3.47;1.67;;;;;;;;;;5027615;28;20530;-64
2022/12/07 13:00:03;;;;;;;2.92;1.52;;;;;;;;;;5025015;28;20053;-77
2022/12/07 13:02:32;;;;;;;4.68;1.60;;;;;;;;;;5039784;28;20147;-63
2022/12/07 13:05:02;;;;;;;4.43;1.48;;;;;;;;;;5053316;28;20490;-69
2022/12/07 13:07:50;;;;;;;0.30;0.30;;;;;;;;;;5053481;28;20073;-66
2022/12/07 13:10:28;;;;;;;1.95;0.60;;;;;;;;;;5039746;28;20053;-62
2022/12/07 13:12:57;;;;;;;2.00;0.60;;;;;;;;;;5048528;28;20511;-69
2022/12/07 13:15:36;;;;;;;1.02;0.82;;;;;;;;;;5058998;28;20044;-65
2022/12/07 13:18:24;;;;;;;1.17;0.98;;;;;;;;;;5049825;28;20044;-63
2022/12/07 13:20:56;;;;;;;0.63;0.63;;;;;;;;;;5049392;28;20051;-69
2022/12/07 13:23:26;;;;;;;2.72;1.42;;;;;;;;;;5048615;28;20457;-70
2022/12/07 13:26:03;;;;;;;1.70;0.68;;;;;;;;;;5055531;28;20056;-62
2022/12/07 13:28:35;;;;;;;2.33;0.93;;;;;;;;;;5071900;28;20051;-62
2022/12/07 13:31:30;;;;;;;2.95;0.90;;;;;;;;;;5067556;28;20048;-68
2022/12/07 13:33:58;;;;;;;2.40;1.63;;;;;;;;;;5017705;28;20088;-62
2022/12/07 13:36:27;;;;;;;6.82;1.15;;;;;;;;;;5077397;28;20125;-62
2022/12/07 13:38:58;;;;;;;3.65;0.93;;;;;;;;;;5069339;28;20060;-67
2022/12/07 13:41:28;;;;;;;1.15;1.02;;;;;;;;;;5068440;28;20064;-69
2022/12/07 13:44:04;;;;;;;1.17;0.52;;;;;;;;;;5082029;28;20063;-62
2022/12/07 13:46:36;;;;;;;4.72;1.42;;;;;;;;;;5070060;28;20056;-64
2022/12/07 13:49:17;;;;;;;2.13;1.10;;;;;;;;;;5066784;28;20083;-64
2022/12/07 13:51:46;;;;;;;5.90;1.83;;;;;;;;;;5066670;28;20048;-65
2022/12/07 13:54:15;;;;;;;3.33;1.23;;;;;;;;;;5065532;28;20174;-67
2022/12/07 13:56:45;;;;;;;2.95;1.27;;;;;;;;;;5070230;28;20076;-62
2022/12/07 13:59:19;;;;;;;1.20;0.90;;;;;;;;;;5071495;28;20060;-66
2022/12/07 14:01:49;;;;;;;2.35;1.30;;;;;;;;;;5069983;28;20056;-69
2022/12/07 14:04:28;;;;;;;1.55;0.82;;;;;;;;;;5065912;28;20488;-69
2022/12/07 14:06:56;;;;;;;1.27;0.80;;;;;;;;;;5074745;28;20044;-62
2022/12/07 14:09:26;;;;;;;2.63;1.00;;;;;;;;;;5063762;28;20412;-65
2022/12/07 14:11:57;;;;;;;1.13;1.00;;;;;;;;;;5066414;28;20061;-65
2022/12/07 14:14:27;;;;;;;3.40;1.10;;;;;;;;;;5069302;28;20424;-62
2022/12/07 14:17:04;;;;;;;1.10;0.70;;;;;;;;;;5072760;28;20461;-62
2022/12/07 14:19:49;;;;;;;2.00;0.93;;;;;;;;;;5070874;28;20048;-63
2022/12/07 14:22:17;;;;;;;;;;;;;;;;;;5067556;28;20048;-66
2022/12/07 14:24:46;;;;;;;1.10;1.02;;;;;;;;;;5072694;28;19943;-63
2022/12/07 14:27:25;;;;;;;4.57;1.60;;;;;;;;;;5062573;28;20053;-62
2022/12/07 14:29:53;;;;;;;0.52;0.50;;;;;;;;;;5052382;28;20166;-64
2022/12/07 14:32:27;;;;;;;1.75;1.17;;;;;;;;;;5067613;28;20055;-63
2022/12/07 14:35:03;;;;;;;3.23;1.60;;;;;;;;;;5072459;28;20512;-62
2022/12/07 14:37:32;;;;;;;2.45;1.05;;;;;;;;;;5075205;28;20075;-66
2022/12/07 14:40:00;;;;;;;1.35;0.90;;;;;;;;;;5080515;28;20051;-63
2022/12/07 14:42:32;;;;;;;4.25;1.30;;;;;;;;;;5072756;28;20044;-62
2022/12/07 14:45:00;;;;;;;1.20;0.57;;;;;;;;;;5069604;28;20480;-63
2022/12/07 14:47:30;;;;;;;3.67;1.55;;;;;;;;;;5072377;28;20076;-69
2022/12/07 14:50:20;;;;;;;1.77;1.13;;;;;;;;;;5069203;28;20048;-64
2022/12/07 14:52:51;;;;;;;3.15;1.00;;;;;;;;;;5067882;28;20049;-65
2022/12/07 14:55:39;;;;;;;2.13;0.88;;;;;;;;;;5065943;28;20044;-66
2022/12/07 14:58:13;;;;;;;2.55;1.38;;;;;;;;;;5065769;28;20508;-66
2022/12/07 15:00:42;;;;;;;0.47;0.47;;;;;;;;;;5063882;28;20041;-63
2022/12/07 15:03:10;;;;;;;4.55;1.35;;;;;;;;;;5060315;28;20310;-62
2022/12/07 15:05:39;;;;;;;1.58;1.00;;;;;;;;;;5078882;28;20052;-66
2022/12/07 15:08:07;;;;;;;2.13;1.55;;;;;;;;;;5067155;28;20040;-64
2022/12/07 15:10:38;;;;;;;1.70;0.80;;;;;;;;;;5058169;28;20044;-69
2022/12/07 15:15:55;;;;;;;2.33;1.23;;;;;;;;;;5060994;28;20040;-61
2022/12/07 15:18:24;;;;;;;4.70;1.73;;;;;;;;;;5071659;28;20456;-62